createdAt,value
2017-11-29T00:00:28.731Z,20.97
2017-11-29T00:02:55.265Z,9.13
2017-11-29T00:05:22.207Z,12.20
2017-11-29T00:07:48.731Z,14.50
2017-11-29T00:10:15.669Z,10.63
2017-11-29T00:12:42.171Z,12.73
2017-11-29T00:15:08.544Z,11.63
2017-11-29T00:17:35.651Z,18.57
2017-11-29T00:20:02.111Z,16.00
2017-11-29T00:22:28.605Z,14.47
2017-11-29T00:24:55.406Z,12.77
2017-11-29T00:27:22.374Z,9.80
2017-11-29T00:29:48.845Z,9.63
2017-11-29T00:32:15.363Z,16.70
2017-11-29T00:34:41.913Z,9.17
2017-11-29T00:37:08.446Z,9.77
2017-11-29T00:39:34.865Z,13.17
2017-11-29T00:42:01.476Z,17.20
2017-11-29T00:44:28.621Z,15.43
2017-11-29T00:46:55.145Z,21.00
2017-11-29T00:49:21.712Z,17.30
2017-11-29T00:51:48.238Z,19.10
2017-11-29T00:54:14.857Z,23.83
2017-11-29T00:56:41.293Z,24.87
2017-11-29T00:59:07.773Z,13.83
2017-11-29T01:01:34.266Z,10.63
2017-11-29T01:04:01.606Z,21.33
2017-11-29T01:06:28.161Z,20.80
2017-11-29T01:08:54.858Z,16.07
2017-11-29T01:11:21.968Z,22.60
2017-11-29T01:13:49.133Z,17.50
2017-11-29T01:16:15.679Z,17.10
2017-11-29T01:18:42.178Z,22.67
2017-11-29T01:21:09.717Z,21.23
2017-11-29T01:23:36.239Z,23.73
2017-11-29T01:26:02.720Z,19.60
2017-11-29T01:28:29.116Z,21.17
2017-11-29T01:30:55.502Z,24.40
2017-11-29T01:33:21.918Z,22.43
2017-11-29T01:35:48.519Z,24.70
2017-11-29T01:38:15.041Z,22.73
2017-11-29T01:40:47.316Z,25.20
2017-11-29T01:43:14.545Z,24.40
2017-11-29T01:45:41.227Z,21.67
2017-11-29T01:48:09.920Z,27.07
2017-11-29T01:50:36.346Z,26.80
2017-11-29T01:53:02.809Z,27.63
2017-11-29T01:55:29.285Z,32.97
2017-11-29T01:57:55.692Z,29.40
2017-11-29T02:00:22.278Z,25.83
2017-11-29T02:02:49.681Z,27.77
2017-11-29T02:05:16.078Z,27.20
2017-11-29T02:07:42.444Z,29.13
2017-11-29T02:10:16.253Z,29.10
2017-11-29T02:12:42.940Z,33.17
2017-11-29T02:15:10.417Z,32.33
2017-11-29T02:17:41.827Z,30.20
2017-11-29T02:20:08.326Z,28.47
2017-11-29T02:22:34.774Z,33.80
2017-11-29T02:25:01.269Z,25.97
2017-11-29T02:27:27.682Z,23.87
2017-11-29T02:29:54.154Z,23.20
2017-11-29T02:32:20.619Z,21.90
2017-11-29T02:34:47.180Z,24.90
2017-11-29T02:37:13.730Z,33.50
2017-11-29T02:42:46.819Z,25.03
2017-11-29T02:45:13.279Z,23.27
2017-11-29T02:47:40.487Z,29.23
2017-11-29T02:50:07.722Z,18.40
2017-11-29T02:52:34.205Z,23.80
2017-11-29T02:55:01.508Z,24.10
2017-11-29T02:57:27.921Z,24.57
2017-11-29T02:59:54.470Z,22.20
2017-11-29T03:02:21.002Z,24.50
2017-11-29T03:04:48.258Z,19.73
2017-11-29T03:07:14.674Z,23.23
2017-11-29T03:09:41.250Z,26.90
2017-11-29T03:12:07.741Z,25.93
2017-11-29T03:14:34.495Z,29.77
2017-11-29T03:17:00.893Z,29.93
2017-11-29T03:19:27.255Z,32.53
2017-11-29T03:21:53.707Z,23.27
2017-11-29T03:24:20.083Z,30.10
2017-11-29T03:26:46.522Z,35.83
2017-11-29T03:29:13.657Z,34.50
2017-11-29T03:31:40.038Z,31.93
2017-11-29T03:34:06.500Z,36.73
2017-11-29T03:36:33.034Z,29.50
2017-11-29T03:38:59.462Z,34.27
2017-11-29T03:41:26.033Z,39.70
2017-11-29T03:43:52.497Z,39.90
2017-11-29T03:46:18.879Z,43.80
2017-11-29T03:48:45.383Z,38.50
2017-11-29T03:51:11.764Z,38.73
2017-11-29T03:53:38.168Z,50.13
2017-11-29T03:56:05.632Z,45.17
2017-11-29T03:58:32.034Z,48.30
2017-11-29T04:00:58.550Z,48.73
2017-11-29T04:03:24.963Z,49.67
2017-11-29T04:05:52.158Z,49.40
2017-11-29T04:08:18.842Z,44.27
2017-11-29T04:10:45.998Z,52.47
2017-11-29T04:13:12.528Z,50.90
2017-11-29T04:15:39.097Z,51.73
2017-11-29T04:18:05.525Z,36.50
2017-11-29T04:20:32.669Z,46.97
2017-11-29T04:22:59.855Z,51.40
2017-11-29T04:25:26.303Z,44.80
2017-11-29T04:27:53.534Z,38.93
2017-11-29T04:30:20.034Z,45.13
2017-11-29T04:32:47.174Z,39.10
2017-11-29T04:35:13.733Z,48.77
2017-11-29T04:37:40.165Z,40.23
2017-11-29T04:40:07.213Z,34.87
2017-11-29T04:42:34.369Z,47.60
2017-11-29T04:45:00.707Z,41.60
2017-11-29T04:47:27.238Z,43.17
2017-11-29T04:49:54.293Z,37.00
2017-11-29T04:52:21.044Z,43.53
2017-11-29T04:54:47.626Z,41.23
2017-11-29T04:57:15.108Z,49.87
2017-11-29T04:59:41.615Z,42.33
2017-11-29T05:02:08.793Z,54.73
2017-11-29T05:04:36.141Z,50.57
2017-11-29T05:07:02.819Z,46.53
2017-11-29T05:09:29.410Z,47.67
2017-11-29T05:11:56.277Z,47.93
2017-11-29T05:14:23.581Z,46.23
2017-11-29T05:16:51.287Z,44.10
2017-11-29T05:19:18.690Z,63.77
2017-11-29T05:21:45.324Z,47.73
2017-11-29T05:24:12.053Z,42.53
2017-11-29T05:26:38.881Z,48.77
2017-11-29T05:29:05.608Z,54.97
2017-11-29T05:31:32.334Z,52.60
2017-11-29T05:33:59.060Z,45.70
2017-11-29T05:36:25.660Z,62.30
2017-11-29T05:38:53.184Z,49.87
2017-11-29T05:41:19.938Z,53.70
2017-11-29T05:43:46.475Z,53.13
2017-11-29T05:46:13.941Z,58.70
2017-11-29T05:48:40.561Z,57.43
2017-11-29T05:51:08.138Z,57.60
2017-11-29T05:53:35.344Z,46.63
2017-11-29T05:56:02.975Z,63.20
2017-11-29T05:58:29.648Z,55.67
2017-11-29T06:00:56.379Z,61.33
2017-11-29T06:03:23.684Z,47.50
2017-11-29T06:05:50.205Z,58.83
2017-11-29T06:08:16.809Z,51.10
2017-11-29T06:10:43.326Z,51.50
2017-11-29T06:13:09.819Z,62.00
2017-11-29T06:15:36.358Z,54.00
2017-11-29T06:18:05.534Z,63.40
2017-11-29T06:20:32.121Z,51.57
2017-11-29T06:22:58.612Z,56.47
2017-11-29T06:25:25.397Z,60.90
2017-11-29T06:27:52.497Z,58.60
2017-11-29T06:30:19.210Z,54.27
2017-11-29T06:32:46.369Z,51.40
2017-11-29T06:35:13.087Z,52.27
2017-11-29T06:37:39.653Z,56.83
2017-11-29T06:40:07.160Z,57.37
2017-11-29T06:42:35.222Z,62.10
2017-11-29T06:45:02.671Z,53.07
2017-11-29T06:47:29.178Z,52.73
2017-11-29T06:49:55.630Z,57.73
2017-11-29T06:52:22.054Z,52.37
2017-11-29T06:54:48.491Z,46.80
2017-11-29T06:57:14.923Z,52.47
2017-11-29T06:59:41.360Z,47.47
2017-11-29T07:02:07.818Z,51.33
2017-11-29T07:04:34.387Z,59.07
2017-11-29T07:07:00.758Z,52.90
2017-11-29T07:09:27.310Z,48.63
2017-11-29T07:11:53.711Z,57.60
2017-11-29T07:14:20.146Z,51.40
2017-11-29T07:16:47.407Z,53.63
2017-11-29T07:19:13.916Z,51.93
2017-11-29T07:21:40.316Z,48.97
2017-11-29T07:24:06.964Z,46.27
2017-11-29T07:26:34.523Z,45.13
2017-11-29T07:29:01.503Z,53.00
2017-11-29T07:31:28.539Z,46.17
2017-11-29T07:33:55.012Z,38.30
2017-11-29T07:36:22.094Z,42.93
2017-11-29T07:38:48.565Z,37.27
2017-11-29T07:41:15.037Z,48.97
2017-11-29T07:43:41.466Z,46.23
2017-11-29T07:46:07.919Z,48.83
2017-11-29T07:48:35.086Z,53.10
2017-11-29T07:51:01.576Z,43.70
2017-11-29T07:53:28.020Z,43.73
2017-11-29T07:55:54.430Z,60.13
2017-11-29T07:58:20.899Z,50.37
2017-11-29T08:00:47.285Z,41.20
2017-11-29T08:03:13.644Z,37.40
2017-11-29T08:05:39.980Z,44.50
2017-11-29T08:08:06.334Z,44.70
2017-11-29T08:10:32.732Z,43.80
2017-11-29T08:12:59.271Z,45.83
2017-11-29T08:15:26.928Z,41.87
2017-11-29T08:17:54.116Z,35.50
2017-11-29T08:20:20.949Z,46.53
2017-11-29T08:22:47.399Z,50.80
2017-11-29T08:25:14.207Z,53.07
2017-11-29T08:27:40.844Z,46.90
2017-11-29T08:30:07.447Z,47.20
2017-11-29T08:32:34.757Z,39.83
2017-11-29T08:35:01.351Z,39.40
2017-11-29T08:37:27.829Z,44.00
2017-11-29T08:39:54.542Z,43.60
2017-11-29T08:42:21.564Z,40.70
2017-11-29T08:44:48.910Z,62.70
2017-11-29T08:47:16.603Z,55.27
2017-11-29T08:49:43.127Z,47.83
2017-11-29T08:52:09.569Z,53.60
2017-11-29T08:54:36.252Z,44.80
2017-11-29T08:57:03.761Z,54.13
2017-11-29T08:59:30.264Z,43.07
2017-11-29T09:01:56.625Z,30.77
2017-11-29T09:04:25.194Z,43.03
2017-11-29T09:06:53.386Z,34.30
2017-11-29T09:09:19.851Z,34.60
2017-11-29T09:11:46.656Z,34.10
2017-11-29T09:14:13.192Z,37.10
2017-11-29T09:16:39.762Z,37.87
2017-11-29T09:19:06.257Z,38.97
2017-11-29T09:21:33.030Z,34.80
2017-11-29T09:23:59.522Z,44.57
2017-11-29T09:26:26.720Z,38.80
2017-11-29T09:28:54.462Z,38.50
2017-11-29T09:31:21.096Z,32.97
2017-11-29T09:33:47.626Z,39.53
2017-11-29T09:36:14.910Z,36.13
2017-11-29T09:38:41.450Z,36.40
2017-11-29T09:41:07.897Z,33.37
2017-11-29T09:43:34.426Z,33.90
2017-11-29T09:46:00.984Z,35.80
2017-11-29T09:48:27.460Z,32.57
2017-11-29T09:50:53.944Z,34.53
2017-11-29T09:53:20.347Z,37.50
2017-11-29T09:55:46.853Z,43.23
2017-11-29T09:58:13.455Z,37.90
2017-11-29T10:00:41.390Z,31.13
2017-11-29T10:03:11.638Z,38.00
2017-11-29T10:05:38.387Z,46.93
2017-11-29T10:08:05.894Z,43.30
2017-11-29T10:10:33.371Z,40.70
2017-11-29T10:12:59.886Z,40.73
2017-11-29T10:15:27.196Z,29.37
2017-11-29T10:17:54.393Z,38.60
2017-11-29T10:20:22.057Z,31.60
2017-11-29T10:22:48.711Z,28.80
2017-11-29T10:25:15.300Z,33.67
2017-11-29T10:27:41.733Z,38.00
2017-11-29T10:30:08.161Z,35.97
2017-11-29T10:32:34.571Z,28.63
2017-11-29T10:35:01.887Z,31.10
2017-11-29T10:37:28.389Z,32.13
2017-11-29T10:39:54.826Z,42.13
2017-11-29T10:42:22.049Z,39.33
2017-11-29T10:44:49.265Z,38.20
2017-11-29T10:47:16.993Z,32.07
2017-11-29T10:49:44.605Z,36.37
2017-11-29T10:52:14.362Z,32.63
2017-11-29T10:54:40.812Z,36.63
2017-11-29T10:57:08.256Z,31.47
2017-11-29T10:59:35.066Z,31.87
2017-11-29T11:02:02.273Z,31.90
2017-11-29T11:04:28.860Z,33.87
2017-11-29T11:06:55.419Z,31.13
2017-11-29T11:09:21.890Z,34.03
2017-11-29T11:11:48.362Z,32.50
2017-11-29T11:14:14.943Z,33.60
2017-11-29T11:16:41.422Z,37.63
2017-11-29T11:19:07.830Z,33.93
2017-11-29T11:21:34.402Z,37.77
2017-11-29T11:24:00.907Z,34.33
2017-11-29T11:26:27.547Z,39.90
2017-11-29T11:28:54.916Z,35.67
2017-11-29T11:31:21.401Z,34.30
2017-11-29T11:33:47.926Z,43.77
2017-11-29T11:36:16.349Z,36.47
2017-11-29T11:38:42.820Z,35.30
2017-11-29T11:41:09.364Z,27.33
2017-11-29T11:43:36.607Z,29.00
2017-11-29T11:46:03.269Z,28.63
2017-11-29T11:48:32.635Z,38.83
2017-11-29T11:50:59.130Z,33.27
2017-11-29T11:53:26.322Z,36.07
2017-11-29T11:55:53.070Z,32.00
2017-11-29T11:58:19.566Z,36.40
2017-11-29T12:00:46.140Z,36.27
2017-11-29T12:03:12.673Z,29.70
2017-11-29T12:05:39.132Z,35.47
2017-11-29T12:08:05.591Z,32.63
2017-11-29T12:10:32.109Z,31.40
2017-11-29T12:12:59.256Z,33.33
2017-11-29T12:15:25.789Z,31.73
2017-11-29T12:17:52.938Z,27.63
2017-11-29T12:20:20.094Z,35.90
2017-11-29T12:22:46.756Z,32.33
2017-11-29T12:25:13.193Z,32.33
2017-11-29T12:27:40.596Z,26.03
2017-11-29T12:30:08.072Z,28.90
2017-11-29T12:32:35.142Z,28.97
2017-11-29T12:35:02.094Z,31.07
2017-11-29T12:37:28.581Z,30.03
2017-11-29T12:39:57.867Z,30.63
2017-11-29T12:42:24.418Z,23.60
2017-11-29T12:44:51.487Z,25.80
2017-11-29T12:47:18.018Z,32.30
2017-11-29T12:49:56.706Z,28.23
2017-11-29T12:52:24.367Z,27.27
2017-11-29T12:54:50.945Z,25.23
2017-11-29T12:57:19.545Z,31.20
2017-11-29T12:59:46.231Z,30.43
2017-11-29T13:02:12.731Z,37.80
2017-11-29T13:04:39.146Z,29.17
2017-11-29T13:07:05.605Z,30.00
2017-11-29T13:09:33.281Z,30.77
2017-11-29T13:12:01.130Z,31.60
2017-11-29T13:14:28.008Z,31.10
2017-11-29T13:16:55.373Z,25.40
2017-11-29T13:19:21.894Z,36.37
2017-11-29T13:21:49.148Z,29.67
2017-11-29T13:24:15.628Z,30.87
2017-11-29T13:26:42.359Z,30.10
2017-11-29T13:29:09.010Z,35.03
2017-11-29T13:31:35.565Z,35.90
2017-11-29T13:34:02.118Z,35.00
2017-11-29T13:36:28.913Z,27.30
2017-11-29T13:38:55.445Z,30.40
2017-11-29T13:41:22.205Z,26.77
2017-11-29T13:43:48.688Z,31.80
2017-11-29T13:46:15.260Z,33.37
2017-11-29T13:48:42.894Z,25.63
2017-11-29T13:51:12.458Z,32.90
2017-11-29T13:53:39.774Z,35.13
2017-11-29T13:56:06.957Z,27.10
2017-11-29T13:58:37.017Z,26.30
2017-11-29T14:01:04.850Z,34.90
2017-11-29T14:03:31.304Z,32.23
2017-11-29T14:05:57.776Z,30.87
2017-11-29T14:08:24.208Z,26.27
2017-11-29T14:10:51.238Z,25.20
2017-11-29T14:13:17.840Z,30.40
2017-11-29T14:15:44.781Z,30.90
2017-11-29T14:18:11.226Z,30.03
2017-11-29T14:20:37.747Z,31.63
2017-11-29T14:23:04.858Z,32.77
2017-11-29T14:25:32.329Z,31.00
2017-11-29T14:27:59.920Z,30.17
2017-11-29T14:30:26.375Z,32.13
2017-11-29T14:32:53.231Z,32.00
2017-11-29T14:35:20.074Z,32.40
2017-11-29T14:37:47.034Z,34.73
2017-11-29T14:40:14.530Z,33.70
2017-11-29T14:42:41.245Z,31.80
2017-11-29T14:45:11.847Z,34.07
2017-11-29T14:47:38.350Z,39.73
2017-11-29T14:50:05.331Z,32.90
2017-11-29T14:52:31.900Z,40.57
2017-11-29T14:54:58.335Z,36.13
2017-11-29T14:57:24.788Z,32.47
2017-11-29T14:59:51.122Z,37.67
2017-11-29T15:02:17.530Z,45.17
2017-11-29T15:04:44.775Z,36.73
2017-11-29T15:07:11.335Z,36.90
2017-11-29T15:09:37.965Z,39.63
2017-11-29T15:12:04.707Z,38.17
2017-11-29T15:14:31.223Z,43.90
2017-11-29T15:19:32.042Z,40.67
2017-11-29T15:21:58.642Z,53.20
2017-11-29T15:24:25.981Z,45.07
2017-11-29T15:26:52.882Z,35.63
2017-11-29T15:29:19.831Z,40.20
2017-11-29T15:31:47.199Z,40.90
2017-11-29T15:34:13.841Z,53.90
2017-11-29T15:36:40.314Z,38.90
2017-11-29T15:39:08.847Z,45.47
2017-11-29T15:41:36.522Z,53.70
2017-11-29T15:44:03.501Z,42.17
2017-11-29T15:46:29.958Z,48.70
2017-11-29T15:48:57.116Z,54.00
2017-11-29T15:51:24.003Z,43.53
2017-11-29T15:53:50.555Z,44.97
2017-11-29T15:56:16.970Z,46.20
2017-11-29T15:58:44.220Z,45.10
2017-11-29T16:01:10.735Z,50.87
2017-11-29T16:03:37.309Z,51.27
2017-11-29T16:06:03.976Z,51.90
2017-11-29T16:08:31.194Z,57.27
2017-11-29T16:10:57.643Z,52.57
2017-11-29T16:13:24.084Z,52.80
2017-11-29T16:15:51.678Z,51.23
2017-11-29T16:18:18.222Z,45.40
2017-11-29T16:20:44.673Z,44.43
2017-11-29T16:23:11.545Z,46.70
2017-11-29T16:25:38.165Z,44.63
2017-11-29T16:28:04.786Z,46.17
2017-11-29T16:30:31.457Z,46.33
2017-11-29T16:32:57.961Z,38.90
2017-11-29T16:35:25.381Z,51.23
2017-11-29T16:37:52.722Z,48.47
2017-11-29T16:40:20.526Z,40.07
2017-11-29T16:42:47.100Z,41.00
2017-11-29T16:45:13.519Z,44.07
2017-11-29T16:47:40.365Z,49.37
2017-11-29T16:50:07.249Z,47.90
2017-11-29T16:52:34.247Z,50.50
2017-11-29T16:55:02.142Z,41.73
2017-11-29T16:57:28.898Z,44.30
2017-11-29T16:59:55.573Z,46.17
2017-11-29T17:02:22.340Z,37.57
2017-11-29T17:04:50.403Z,49.07
2017-11-29T17:07:16.913Z,45.80
2017-11-29T17:09:46.794Z,51.00
2017-11-29T17:12:13.473Z,44.53
2017-11-29T17:14:40.682Z,43.70
2017-11-29T17:17:07.899Z,36.30
2017-11-29T17:19:35.816Z,42.20
2017-11-29T17:22:02.602Z,48.73
2017-11-29T17:24:29.756Z,57.33
2017-11-29T17:26:56.268Z,44.47
2017-11-29T17:29:23.497Z,45.60
2017-11-29T17:31:50.333Z,41.63
2017-11-29T17:34:16.858Z,45.47
2017-11-29T17:36:44.189Z,53.30
2017-11-29T17:39:10.617Z,41.03
2017-11-29T17:41:37.108Z,53.97
2017-11-29T17:44:03.510Z,45.80
2017-11-29T17:46:30.212Z,45.77
2017-11-29T17:48:56.784Z,51.30
2017-11-29T17:51:23.627Z,42.70
2017-11-29T17:53:50.385Z,40.67
2017-11-29T17:56:17.733Z,44.00
2017-11-29T17:58:44.567Z,45.97
2017-11-29T18:01:11.287Z,42.10
2017-11-29T18:03:38.790Z,48.97
2017-11-29T18:06:05.729Z,41.03
2017-11-29T18:08:33.416Z,43.07
2017-11-29T18:11:00.656Z,40.07
2017-11-29T18:13:27.248Z,43.93
2017-11-29T18:15:54.888Z,34.50
2017-11-29T18:18:21.457Z,39.50
2017-11-29T18:20:48.005Z,33.17
2017-11-29T18:23:14.429Z,36.03
2017-11-29T18:25:40.770Z,46.80
2017-11-29T18:28:07.261Z,39.90
2017-11-29T18:30:33.937Z,40.70
2017-11-29T18:33:00.950Z,35.73
2017-11-29T18:35:27.489Z,38.23
2017-11-29T18:37:54.060Z,45.17
2017-11-29T18:40:20.413Z,41.23
2017-11-29T18:42:46.862Z,39.83
2017-11-29T18:45:13.412Z,35.03
2017-11-29T18:47:40.481Z,39.53
2017-11-29T18:50:07.039Z,33.50
2017-11-29T18:52:33.657Z,38.63
2017-11-29T18:55:00.314Z,36.40
2017-11-29T18:57:27.360Z,36.10
2017-11-29T18:59:54.325Z,38.77
2017-11-29T19:02:21.268Z,30.80
2017-11-29T19:04:47.773Z,35.67
2017-11-29T19:07:14.331Z,49.87
2017-11-29T19:09:41.603Z,35.97
2017-11-29T19:12:08.511Z,52.57
2017-11-29T19:14:35.874Z,39.00
2017-11-29T19:17:04.354Z,37.40
2017-11-29T19:19:30.783Z,37.90
2017-11-29T19:21:57.334Z,47.73
2017-11-29T19:24:23.831Z,41.97
2017-11-29T19:26:50.209Z,36.37
2017-11-29T19:29:16.863Z,42.30
2017-11-29T19:31:43.228Z,44.97
2017-11-29T19:34:09.626Z,39.17
2017-11-29T19:36:36.870Z,37.90
2017-11-29T19:39:03.537Z,37.77
2017-11-29T19:41:30.221Z,45.30
2017-11-29T19:43:57.040Z,31.90
2017-11-29T19:46:23.538Z,42.93
2017-11-29T19:48:50.027Z,42.90
2017-11-29T19:51:16.664Z,43.37
2017-11-29T19:53:43.177Z,42.50
2017-11-29T19:56:09.881Z,41.83
2017-11-29T19:58:36.362Z,39.07
2017-11-29T20:01:02.933Z,40.50
2017-11-29T20:03:29.373Z,34.50
2017-11-29T20:05:55.819Z,41.60
2017-11-29T20:08:22.898Z,40.23
2017-11-29T20:10:49.397Z,45.93
2017-11-29T20:13:16.220Z,42.23
2017-11-29T20:15:42.647Z,37.77
2017-11-29T20:18:09.171Z,45.03
2017-11-29T20:20:35.699Z,41.27
2017-11-29T20:23:02.444Z,44.73
2017-11-29T20:25:30.225Z,46.30
2017-11-29T20:27:57.664Z,49.50
2017-11-29T20:30:24.961Z,42.50
2017-11-29T20:32:51.552Z,39.97
2017-11-29T20:35:19.013Z,41.93
2017-11-29T20:37:45.442Z,44.97
2017-11-29T20:40:11.856Z,39.17
2017-11-29T20:42:38.358Z,39.17
2017-11-29T20:45:05.380Z,36.27
2017-11-29T20:47:31.972Z,38.63
2017-11-29T20:49:58.762Z,46.93
2017-11-29T20:52:37.715Z,42.30
2017-11-29T20:55:04.273Z,40.70
2017-11-29T20:57:30.716Z,39.30
2017-11-29T20:59:58.014Z,34.30
2017-11-29T21:02:24.683Z,45.63
2017-11-29T21:04:51.466Z,39.27
2017-11-29T21:07:18.850Z,41.13
2017-11-29T21:09:46.073Z,35.60
2017-11-29T21:12:12.636Z,53.87
2017-11-29T21:14:39.200Z,42.30
2017-11-29T21:17:06.444Z,50.63
2017-11-29T21:19:32.885Z,41.30
2017-11-29T21:21:59.998Z,39.97
2017-11-29T21:24:26.394Z,44.77
2017-11-29T21:26:52.826Z,41.70
2017-11-29T21:29:19.310Z,38.23
2017-11-29T21:31:45.801Z,39.97
2017-11-29T21:34:12.241Z,45.60
2017-11-29T21:36:39.031Z,49.47
2017-11-29T21:39:05.467Z,38.80
2017-11-29T21:41:31.974Z,39.23
2017-11-29T21:43:58.481Z,44.70
2017-11-29T21:46:24.987Z,36.83
2017-11-29T21:48:51.542Z,42.70
2017-11-29T21:51:17.984Z,41.17
2017-11-29T21:53:44.407Z,44.07
2017-11-29T21:56:10.918Z,44.40
2017-11-29T21:58:39.179Z,45.43
2017-11-29T22:01:08.686Z,48.23
2017-11-29T22:03:35.255Z,43.67
2017-11-29T22:06:01.901Z,37.50
2017-11-29T22:08:28.890Z,39.67
2017-11-29T22:10:55.327Z,39.50
2017-11-29T22:13:21.735Z,37.03
2017-11-29T22:15:50.417Z,41.67
2017-11-29T22:18:17.711Z,40.40
2017-11-29T22:20:44.814Z,46.20
2017-11-29T22:23:11.986Z,43.37
2017-11-29T22:25:38.429Z,37.50
2017-11-29T22:28:04.926Z,44.03
2017-11-29T22:30:32.080Z,51.93
2017-11-29T22:32:58.456Z,45.90
2017-11-29T22:35:24.937Z,45.67
2017-11-29T22:37:51.439Z,48.53
2017-11-29T22:40:18.631Z,45.50
2017-11-29T22:42:45.056Z,42.30
2017-11-29T22:45:11.498Z,42.23
2017-11-29T22:47:37.851Z,47.20
2017-11-29T22:50:04.254Z,55.53
2017-11-29T22:52:30.657Z,42.43
2017-11-29T22:54:57.141Z,42.57
2017-11-29T22:57:23.518Z,42.30
2017-11-29T22:59:50.646Z,44.13
2017-11-29T23:02:17.041Z,45.30
2017-11-29T23:04:43.490Z,46.23
2017-11-29T23:07:10.003Z,44.63
2017-11-29T23:09:36.477Z,43.37
2017-11-29T23:12:02.983Z,49.27
2017-11-29T23:17:03.264Z,49.40
2017-11-29T23:19:30.847Z,49.17
2017-11-29T23:21:59.266Z,52.23
2017-11-29T23:24:26.027Z,46.30
2017-11-29T23:26:53.210Z,47.40
2017-11-29T23:29:19.576Z,48.57
2017-11-29T23:31:46.802Z,52.60
2017-11-29T23:34:13.325Z,50.93
2017-11-29T23:36:39.706Z,51.30
2017-11-29T23:39:06.421Z,49.03
2017-11-29T23:41:32.994Z,46.73
2017-11-29T23:43:59.555Z,51.00
2017-11-29T23:46:26.143Z,52.17
2017-11-29T23:48:53.066Z,48.70
2017-11-29T23:51:21.349Z,55.30
2017-11-29T23:53:47.742Z,57.40
2017-11-29T23:56:14.892Z,50.00
2017-11-29T23:58:41.805Z,54.60
